createdAt,value
2018-03-30T00:01:44.058Z,100543.80
2018-03-30T00:04:09.821Z,100540.87
2018-03-30T00:06:35.580Z,100536.25
2018-03-30T00:09:01.336Z,100535.58
2018-03-30T00:11:27.344Z,100531.73
2018-03-30T00:13:53.129Z,100530.08
2018-03-30T00:16:18.894Z,100532.70
2018-03-30T00:18:44.666Z,100527.11
2018-03-30T00:21:10.463Z,100523.23
2018-03-30T00:23:36.222Z,100526.66
2018-03-30T00:26:01.992Z,100525.72
2018-03-30T00:28:28.114Z,100528.41
2018-03-30T00:30:53.982Z,100532.67
2018-03-30T00:33:19.785Z,100532.81
2018-03-30T00:35:45.574Z,100543.64
2018-03-30T00:38:11.364Z,100541.48
2018-03-30T00:40:37.161Z,100543.77
2018-03-30T00:43:02.965Z,100547.23
2018-03-30T00:45:28.804Z,100559.16
2018-03-30T00:47:54.645Z,100557.97
2018-03-30T00:50:20.422Z,100557.58
2018-03-30T00:52:46.190Z,100562.89
2018-03-30T00:55:11.989Z,100556.00
2018-03-30T00:57:37.765Z,100550.26
2018-03-30T01:00:03.563Z,100553.78
2018-03-30T01:02:29.761Z,100553.89
2018-03-30T01:04:55.521Z,100549.33
2018-03-30T01:07:21.297Z,100550.27
2018-03-30T01:09:47.077Z,100551.53
2018-03-30T01:12:12.849Z,100560.06
2018-03-30T01:14:38.638Z,100557.73
2018-03-30T01:17:04.416Z,100555.22
2018-03-30T01:19:30.216Z,100560.30
2018-03-30T01:21:55.987Z,100556.58
2018-03-30T01:24:21.748Z,100555.61
2018-03-30T01:29:31.793Z,100559.03
2018-03-30T01:31:57.592Z,100554.31
2018-03-30T01:34:23.356Z,100552.64
2018-03-30T01:36:49.145Z,100543.44
2018-03-30T01:39:14.905Z,100557.00
2018-03-30T01:41:40.686Z,100556.36
2018-03-30T01:44:06.456Z,100565.13
2018-03-30T01:46:32.227Z,100559.18
2018-03-30T01:48:57.967Z,100569.23
2018-03-30T01:51:23.743Z,100570.91
2018-03-30T01:53:49.518Z,100563.16
2018-03-30T01:56:15.272Z,100564.87
2018-03-30T01:58:41.112Z,100565.55
2018-03-30T02:01:06.856Z,100566.88
2018-03-30T02:03:32.609Z,100557.44
2018-03-30T02:05:58.376Z,100561.96
2018-03-30T02:08:24.133Z,100553.78
2018-03-30T02:10:49.892Z,100559.86
2018-03-30T02:13:15.673Z,100552.95
2018-03-30T02:15:41.429Z,100553.66
2018-03-30T02:18:07.195Z,100556.92
2018-03-30T02:20:32.965Z,100550.62
2018-03-30T02:22:58.702Z,100561.44
2018-03-30T02:25:24.460Z,100547.09
2018-03-30T02:27:50.828Z,100553.27
2018-03-30T02:30:16.598Z,100548.10
2018-03-30T02:32:42.359Z,100546.39
2018-03-30T02:35:08.119Z,100545.94
2018-03-30T02:37:33.893Z,100545.03
2018-03-30T02:39:59.657Z,100547.68
2018-03-30T02:42:25.441Z,100540.60
2018-03-30T02:44:51.547Z,100541.41
2018-03-30T02:47:17.365Z,100541.02
2018-03-30T02:49:43.105Z,100542.90
2018-03-30T02:52:08.883Z,100552.40
2018-03-30T02:54:34.674Z,100549.20
2018-03-30T02:57:00.425Z,100548.42
2018-03-30T02:59:26.181Z,100547.13
2018-03-30T03:01:52.192Z,100550.52
2018-03-30T03:04:17.966Z,100556.44
2018-03-30T03:06:43.723Z,100552.11
2018-03-30T03:09:09.480Z,100542.64
2018-03-30T03:11:35.241Z,100534.08
2018-03-30T03:14:00.989Z,100541.83
2018-03-30T03:16:26.769Z,100552.08
2018-03-30T03:18:52.521Z,100557.14
2018-03-30T03:21:18.280Z,100557.08
2018-03-30T03:23:44.170Z,100544.64
2018-03-30T03:26:09.956Z,100544.28
2018-03-30T03:28:35.724Z,100531.11
2018-03-30T03:31:01.497Z,100520.19
2018-03-30T03:33:27.269Z,100520.38
2018-03-30T03:35:53.047Z,100516.38
2018-03-30T03:38:18.804Z,100518.37
2018-03-30T03:40:44.766Z,100528.58
2018-03-30T03:43:10.569Z,100533.98
2018-03-30T03:45:36.338Z,100526.19
2018-03-30T03:48:02.084Z,100529.68
2018-03-30T03:50:27.866Z,100531.17
2018-03-30T03:52:53.641Z,100532.01
2018-03-30T03:55:19.400Z,100532.43
2018-03-30T03:57:45.224Z,100533.01
2018-03-30T04:00:11.008Z,100536.53
2018-03-30T04:02:36.769Z,100535.86
2018-03-30T04:05:02.539Z,100536.05
2018-03-30T04:07:28.314Z,100539.02
2018-03-30T04:09:54.049Z,100541.22
2018-03-30T04:12:19.819Z,100550.91
2018-03-30T04:14:46.048Z,100542.80
2018-03-30T04:17:11.811Z,100538.63
2018-03-30T04:19:37.561Z,100544.47
2018-03-30T04:22:03.338Z,100541.04
2018-03-30T04:24:29.120Z,100535.25
2018-03-30T04:26:54.870Z,100524.13
2018-03-30T04:29:20.659Z,100528.70
2018-03-30T04:31:46.485Z,100530.00
2018-03-30T04:34:12.240Z,100525.67
2018-03-30T04:36:38.009Z,100519.98
2018-03-30T04:39:04.763Z,100519.59
2018-03-30T04:41:30.574Z,100522.25
2018-03-30T04:43:56.337Z,100520.53
2018-03-30T04:46:22.090Z,100521.47
2018-03-30T04:48:47.865Z,100524.77
2018-03-30T04:51:13.614Z,100524.95
2018-03-30T04:53:39.849Z,100528.66
2018-03-30T04:56:05.657Z,100528.36
2018-03-30T04:58:31.428Z,100522.53
2018-03-30T05:00:57.168Z,100532.42
2018-03-30T05:03:22.950Z,100529.00
2018-03-30T05:05:48.728Z,100527.73
2018-03-30T05:08:14.497Z,100532.30
2018-03-30T05:10:40.693Z,100531.27
2018-03-30T05:13:06.490Z,100535.33
2018-03-30T05:15:32.252Z,100536.42
2018-03-30T05:17:58.046Z,100537.99
2018-03-30T05:20:23.984Z,100540.90
2018-03-30T05:22:49.777Z,100539.86
2018-03-30T05:25:15.565Z,100540.70
2018-03-30T05:27:41.385Z,100541.89
2018-03-30T05:30:07.144Z,100536.19
2018-03-30T05:32:32.924Z,100542.07
2018-03-30T05:34:58.694Z,100548.27
2018-03-30T05:37:24.437Z,100534.73
2018-03-30T05:39:50.221Z,100538.27
2018-03-30T05:42:15.988Z,100538.37
2018-03-30T05:44:41.750Z,100539.67
2018-03-30T05:47:07.533Z,100538.31
2018-03-30T05:49:33.309Z,100545.06
2018-03-30T05:51:59.373Z,100545.34
2018-03-30T05:54:25.199Z,100548.22
2018-03-30T05:56:50.938Z,100543.91
2018-03-30T05:59:16.696Z,100543.88
2018-03-30T06:01:42.493Z,100552.33
2018-03-30T06:04:08.233Z,100543.69
2018-03-30T06:06:34.005Z,100547.20
2018-03-30T06:08:59.777Z,100544.40
2018-03-30T06:11:25.517Z,100546.67
2018-03-30T06:13:51.294Z,100546.47
2018-03-30T06:16:17.110Z,100546.30
2018-03-30T06:18:42.860Z,100546.02
2018-03-30T06:21:08.629Z,100550.42
2018-03-30T06:23:34.536Z,100553.64
2018-03-30T06:26:00.330Z,100549.89
2018-03-30T06:28:26.108Z,100547.79
2018-03-30T06:30:51.889Z,100546.95
2018-03-30T06:33:17.651Z,100549.58
2018-03-30T06:35:43.396Z,100555.49
2018-03-30T06:38:09.190Z,100550.03
2018-03-30T06:40:34.961Z,100557.94
2018-03-30T06:43:00.716Z,100560.98
2018-03-30T06:45:26.512Z,100555.83
2018-03-30T06:47:52.257Z,100553.69
2018-03-30T06:50:17.997Z,100555.36
2018-03-30T06:52:43.968Z,100554.58
2018-03-30T06:55:09.721Z,100548.69
2018-03-30T06:57:35.468Z,100545.47
2018-03-30T07:00:01.257Z,100546.63
2018-03-30T07:02:27.009Z,100550.52
2018-03-30T07:04:52.768Z,100546.36
2018-03-30T07:07:18.510Z,100556.84
2018-03-30T07:09:44.263Z,100558.10
2018-03-30T07:12:10.046Z,100556.23
2018-03-30T07:14:35.834Z,100555.48
2018-03-30T07:17:01.597Z,100560.05
2018-03-30T07:19:27.386Z,100558.52
2018-03-30T07:21:53.165Z,100564.75
2018-03-30T07:24:19.686Z,100568.91
2018-03-30T07:26:45.508Z,100565.86
2018-03-30T07:29:11.861Z,100564.95
2018-03-30T07:31:37.621Z,100565.08
2018-03-30T07:34:03.377Z,100570.50
2018-03-30T07:36:29.145Z,100560.70
2018-03-30T07:38:55.045Z,100563.58
2018-03-30T07:41:20.791Z,100561.02
2018-03-30T07:43:46.549Z,100553.39
2018-03-30T07:46:12.325Z,100559.01
2018-03-30T07:48:38.069Z,100558.82
2018-03-30T07:51:03.844Z,100561.23
2018-03-30T07:53:29.579Z,100559.14
2018-03-30T07:55:55.734Z,100560.41
2018-03-30T07:58:21.528Z,100555.22
2018-03-30T08:00:47.272Z,100549.46
2018-03-30T08:03:13.031Z,100542.29
2018-03-30T08:05:38.781Z,100542.48
2018-03-30T08:08:04.538Z,100546.83
2018-03-30T08:10:30.304Z,100547.28
2018-03-30T08:12:56.105Z,100537.97
2018-03-30T08:15:21.877Z,100542.12
2018-03-30T08:17:47.648Z,100537.84
2018-03-30T08:20:13.405Z,100536.08
2018-03-30T08:22:39.170Z,100536.30
2018-03-30T08:25:04.904Z,100542.44
2018-03-30T08:27:30.744Z,100541.41
2018-03-30T08:29:56.496Z,100532.40
2018-03-30T08:32:22.261Z,100541.61
2018-03-30T08:34:48.033Z,100547.58
2018-03-30T08:37:13.811Z,100544.97
2018-03-30T08:39:39.549Z,100542.28
2018-03-30T08:42:05.341Z,100544.12
2018-03-30T08:44:31.161Z,100537.97
2018-03-30T08:46:56.924Z,100535.80
2018-03-30T08:49:22.732Z,100549.75
2018-03-30T08:51:48.461Z,100547.42
2018-03-30T08:54:14.678Z,100552.06
2018-03-30T08:56:40.460Z,100546.03
2018-03-30T08:59:06.212Z,100550.94
2018-03-30T09:01:31.972Z,100545.70
2018-03-30T09:03:57.729Z,100546.78
2018-03-30T09:06:23.476Z,100552.39
2018-03-30T09:08:49.255Z,100544.70
2018-03-30T09:11:15.006Z,100540.81
2018-03-30T09:13:40.773Z,100532.78
2018-03-30T09:16:06.528Z,100529.34
2018-03-30T09:18:32.305Z,100502.33
2018-03-30T09:20:58.435Z,100527.48
2018-03-30T09:23:24.220Z,100526.43
2018-03-30T09:25:49.985Z,100527.55
2018-03-30T09:28:15.738Z,100525.27
2018-03-30T09:30:41.637Z,100518.92
2018-03-30T09:33:13.413Z,100528.06
2018-03-30T09:35:39.185Z,100534.72
2018-03-30T09:38:05.237Z,100531.27
2018-03-30T09:40:30.982Z,100524.00
2018-03-30T09:42:56.781Z,100530.22
2018-03-30T09:45:22.529Z,100524.39
2018-03-30T09:47:48.311Z,100525.21
2018-03-30T09:50:14.085Z,100520.74
2018-03-30T09:52:39.865Z,100515.47
2018-03-30T09:55:05.620Z,100520.67
2018-03-30T09:57:31.416Z,100515.40
2018-03-30T09:59:57.160Z,100512.06
2018-03-30T10:02:28.273Z,100513.84
2018-03-30T10:04:58.970Z,100508.82
2018-03-30T10:07:24.727Z,100510.78
2018-03-30T10:09:50.510Z,100508.60
2018-03-30T10:12:16.265Z,100504.27
2018-03-30T10:14:42.056Z,100487.67
2018-03-30T10:17:07.805Z,100494.38
2018-03-30T10:19:33.556Z,100494.56
2018-03-30T10:21:59.336Z,100491.59
2018-03-30T10:24:25.536Z,100485.19
2018-03-30T10:26:51.305Z,100476.81
2018-03-30T10:29:16.984Z,100484.83
2018-03-30T10:31:42.653Z,100482.13
2018-03-30T10:34:08.352Z,100488.33
2018-03-30T10:36:34.013Z,100479.11
2018-03-30T10:38:59.701Z,100476.97
2018-03-30T10:41:25.384Z,100477.28
2018-03-30T10:43:51.185Z,100469.33
2018-03-30T10:46:16.841Z,100466.91
2018-03-30T10:48:42.985Z,100467.09
2018-03-30T10:51:08.610Z,100472.17
2018-03-30T10:53:34.273Z,100472.08
2018-03-30T10:55:59.940Z,100472.14
2018-03-30T10:58:25.589Z,100463.19
2018-03-30T11:00:51.246Z,100466.25
2018-03-30T11:03:16.916Z,100460.72
2018-03-30T11:05:43.017Z,100458.19
2018-03-30T11:08:08.676Z,100448.25
2018-03-30T11:10:34.336Z,100445.12
2018-03-30T11:12:59.988Z,100442.38
2018-03-30T11:15:25.665Z,100439.05
2018-03-30T11:17:51.316Z,100438.41
2018-03-30T11:20:16.990Z,100436.14
2018-03-30T11:22:42.688Z,100431.92
2018-03-30T11:25:08.964Z,100424.80
2018-03-30T11:27:34.637Z,100413.39
2018-03-30T11:30:00.313Z,100410.20
2018-03-30T11:32:26.036Z,100406.72
2018-03-30T11:34:51.666Z,100404.80
2018-03-30T11:37:17.332Z,100400.22
2018-03-30T11:39:42.997Z,100401.08
2018-03-30T11:42:08.740Z,100398.17
2018-03-30T11:44:34.400Z,100393.50
2018-03-30T11:47:00.069Z,100383.89
2018-03-30T11:49:25.753Z,100384.90
2018-03-30T11:51:51.405Z,100382.19
2018-03-30T11:54:17.115Z,100374.74
2018-03-30T11:56:42.867Z,100373.89
2018-03-30T11:59:08.593Z,100367.05
2018-03-30T12:01:38.132Z,100357.32
2018-03-30T12:04:15.644Z,100360.16
2018-03-30T12:06:55.229Z,100360.48
2018-03-30T12:12:39.667Z,100356.85
2018-03-30T12:15:13.191Z,100351.24
2018-03-30T12:17:41.449Z,100335.41
2018-03-30T12:20:08.874Z,100331.45
2018-03-30T12:22:34.676Z,100334.19
2018-03-30T12:25:00.336Z,100326.53
2018-03-30T12:27:26.336Z,100322.08
2018-03-30T12:29:51.996Z,100315.12
2018-03-30T12:32:17.645Z,100314.49
2018-03-30T12:34:43.328Z,100313.72
2018-03-30T12:37:08.979Z,100301.27
2018-03-30T12:39:34.644Z,100292.59
2018-03-30T12:42:00.332Z,100290.66
2018-03-30T12:44:26.072Z,100287.12
2018-03-30T12:46:51.733Z,100293.05
2018-03-30T12:49:17.399Z,100288.55
2018-03-30T12:51:43.061Z,100282.81
2018-03-30T12:54:08.712Z,100285.16
2018-03-30T12:56:34.382Z,100282.95
2018-03-30T12:59:00.053Z,100285.45
2018-03-30T13:01:26.136Z,100272.00
2018-03-30T13:03:51.818Z,100262.52
2018-03-30T13:06:17.472Z,100270.56
2018-03-30T13:08:43.140Z,100270.19
2018-03-30T13:11:08.812Z,100257.66
2018-03-30T13:13:34.481Z,100252.33
2018-03-30T13:16:00.137Z,100249.78
2018-03-30T13:18:25.838Z,100250.91
2018-03-30T13:20:51.737Z,100246.36
2018-03-30T13:23:17.579Z,100237.81
2018-03-30T13:25:43.260Z,100221.27
2018-03-30T13:28:08.916Z,100222.12
2018-03-30T13:30:34.577Z,100209.16
2018-03-30T13:33:00.248Z,100205.55
2018-03-30T13:35:25.936Z,100207.52
2018-03-30T13:37:51.594Z,100203.78
2018-03-30T13:40:17.287Z,100201.81
2018-03-30T13:42:42.941Z,100190.47
2018-03-30T13:45:08.614Z,100197.11
2018-03-30T13:47:34.287Z,100184.46
2018-03-30T13:49:59.958Z,100184.84
2018-03-30T13:52:26.589Z,100180.02
2018-03-30T13:54:52.248Z,100183.66
2018-03-30T13:57:17.930Z,100180.91
2018-03-30T13:59:43.603Z,100174.66
2018-03-30T14:02:26.178Z,100174.47
2018-03-30T14:04:51.868Z,100157.54
2018-03-30T14:07:20.463Z,100155.53
2018-03-30T14:09:46.124Z,100154.06
2018-03-30T14:12:11.789Z,100153.42
2018-03-30T14:14:37.446Z,100147.77
2018-03-30T14:17:04.949Z,100145.91
2018-03-30T14:19:31.518Z,100144.66
2018-03-30T14:22:03.443Z,100140.06
2018-03-30T14:24:34.048Z,100126.03
2018-03-30T14:27:18.644Z,100127.14
2018-03-30T14:29:48.309Z,100117.73
2018-03-30T14:32:15.865Z,100127.74
2018-03-30T14:34:47.436Z,100132.34
2018-03-30T14:37:25.924Z,100118.17
2018-03-30T14:39:51.636Z,100116.59
2018-03-30T14:42:18.193Z,100110.56
2018-03-30T14:44:49.796Z,100106.50
2018-03-30T14:47:15.467Z,100117.41
2018-03-30T14:49:41.157Z,100118.36
2018-03-30T14:55:08.508Z,100123.55
2018-03-30T14:57:37.186Z,100121.36
2018-03-30T15:00:20.032Z,100122.73
2018-03-30T15:02:45.698Z,100127.77
2018-03-30T15:05:30.197Z,100128.76
2018-03-30T15:07:56.720Z,100125.58
2018-03-30T15:10:28.455Z,100131.90
2018-03-30T15:16:04.485Z,100111.50
2018-03-30T15:18:32.092Z,100123.63
2018-03-30T15:20:57.765Z,100116.96
2018-03-30T15:23:23.432Z,100119.04
2018-03-30T15:25:49.373Z,100115.02
2018-03-30T15:28:15.061Z,100108.75
2018-03-30T15:30:42.627Z,100111.67
2018-03-30T15:36:05.390Z,100120.27
2018-03-30T15:38:31.072Z,100118.35
2018-03-30T15:40:56.744Z,100123.31
2018-03-30T15:43:22.404Z,100116.77
2018-03-30T15:45:54.967Z,100117.51
2018-03-30T15:48:20.664Z,100113.64
2018-03-30T15:50:46.357Z,100110.54
2018-03-30T15:53:16.297Z,100112.02
2018-03-30T15:55:41.965Z,100097.76
2018-03-30T15:58:07.648Z,100107.86
2018-03-30T16:00:33.345Z,100101.08
2018-03-30T16:02:59.033Z,100108.84
2018-03-30T16:05:24.692Z,100107.92
2018-03-30T16:07:50.379Z,100103.26
2018-03-30T16:10:16.064Z,100104.50
2018-03-30T16:12:41.740Z,100095.53
2018-03-30T16:15:07.426Z,100090.36
2018-03-30T16:17:33.108Z,100090.55
2018-03-30T16:19:58.720Z,100093.33
2018-03-30T16:22:24.608Z,100093.10
2018-03-30T16:24:50.208Z,100102.94
2018-03-30T16:27:15.820Z,100094.31
2018-03-30T16:29:41.470Z,100099.62
2018-03-30T16:32:07.063Z,100096.88
2018-03-30T16:34:32.661Z,100095.69
2018-03-30T16:36:58.272Z,100091.12
2018-03-30T16:39:23.876Z,100081.45
2018-03-30T16:41:49.477Z,100078.03
2018-03-30T16:44:15.086Z,100077.39
2018-03-30T16:46:40.700Z,100078.51
2018-03-30T16:49:06.317Z,100077.61
2018-03-30T16:51:32.389Z,100073.11
2018-03-30T16:53:57.990Z,100068.38
2018-03-30T16:56:23.600Z,100070.33
2018-03-30T16:58:49.216Z,100069.41
2018-03-30T17:01:14.860Z,100069.01
2018-03-30T17:03:40.448Z,100070.08
2018-03-30T17:06:06.059Z,100073.88
2018-03-30T17:08:31.876Z,100077.75
2018-03-30T17:10:57.478Z,100070.31
2018-03-30T17:13:23.093Z,100080.56
2018-03-30T17:15:48.718Z,100090.26
2018-03-30T17:18:14.333Z,100092.89
2018-03-30T17:20:39.936Z,100098.09
2018-03-30T17:23:05.551Z,100094.47
2018-03-30T17:25:31.192Z,100091.41
2018-03-30T17:27:56.790Z,100094.23
2018-03-30T17:30:22.452Z,100090.16
2018-03-30T17:32:48.094Z,100095.61
2018-03-30T17:35:13.698Z,100090.06
2018-03-30T17:43:16.984Z,100086.37
2018-03-30T17:45:42.585Z,100090.16
2018-03-30T17:48:08.176Z,100090.05
2018-03-30T17:50:33.792Z,100088.91
2018-03-30T17:52:59.393Z,100094.65
2018-03-30T17:55:24.984Z,100092.42
2018-03-30T17:57:50.589Z,100100.25
2018-03-30T18:00:16.803Z,100094.14
2018-03-30T18:02:42.398Z,100096.59
2018-03-30T18:05:08.015Z,100091.84
2018-03-30T18:07:33.618Z,100099.14
2018-03-30T18:09:59.233Z,100107.97
2018-03-30T18:12:24.857Z,100105.50
2018-03-30T18:14:50.456Z,100106.39
2018-03-30T18:17:16.416Z,100106.12
2018-03-30T18:19:42.047Z,100101.31
2018-03-30T18:22:07.668Z,100101.94
2018-03-30T18:24:33.284Z,100109.03
2018-03-30T18:26:58.888Z,100112.33
2018-03-30T18:29:24.494Z,100107.47
2018-03-30T18:31:50.100Z,100106.01
2018-03-30T18:34:16.128Z,100116.58
2018-03-30T18:36:41.724Z,100113.38
2018-03-30T18:39:07.344Z,100108.30
2018-03-30T18:41:32.960Z,100114.08
2018-03-30T18:43:58.560Z,100112.28
2018-03-30T18:46:24.161Z,100117.09
2018-03-30T18:48:49.777Z,100119.02
2018-03-30T18:51:15.686Z,100120.98
2018-03-30T18:53:41.331Z,100118.79
2018-03-30T18:56:06.958Z,100120.12
2018-03-30T18:58:32.556Z,100130.57
2018-03-30T19:00:58.160Z,100122.36
2018-03-30T19:03:23.788Z,100125.33
2018-03-30T19:05:49.400Z,100133.02
2018-03-30T19:08:15.085Z,100130.44
2018-03-30T19:10:40.733Z,100129.47
2018-03-30T19:13:06.355Z,100129.72
2018-03-30T19:15:31.968Z,100124.00
2018-03-30T19:17:57.584Z,100119.05
2018-03-30T19:20:23.189Z,100127.83
2018-03-30T19:22:48.793Z,100133.41
2018-03-30T19:25:14.720Z,100124.31
2018-03-30T19:27:40.332Z,100122.73
2018-03-30T19:30:05.938Z,100135.43
2018-03-30T19:32:31.559Z,100133.61
2018-03-30T19:34:57.174Z,100139.06
2018-03-30T19:37:22.772Z,100139.78
2018-03-30T19:39:48.400Z,100132.91
2018-03-30T19:42:14.014Z,100115.49
2018-03-30T19:44:39.617Z,100132.85
2018-03-30T19:47:05.233Z,100131.22
2018-03-30T19:49:30.836Z,100128.72
2018-03-30T19:51:56.448Z,100121.70
2018-03-30T19:54:22.068Z,100128.47
2018-03-30T19:56:47.678Z,100127.80
2018-03-30T19:59:13.451Z,100120.45
2018-03-30T20:01:39.063Z,100116.70
2018-03-30T20:04:04.661Z,100111.50
2018-03-30T20:06:30.269Z,100116.57
2018-03-30T20:08:55.872Z,100118.16
2018-03-30T20:11:21.472Z,100113.38
2018-03-30T20:13:47.093Z,100112.80
2018-03-30T20:16:12.690Z,100109.47
2018-03-30T20:18:38.288Z,100110.09
2018-03-30T20:21:03.926Z,100103.58
2018-03-30T20:23:29.960Z,100115.89
2018-03-30T20:25:55.566Z,100115.25
2018-03-30T20:28:21.183Z,100104.02
2018-03-30T20:30:46.794Z,100101.49
2018-03-30T20:33:12.394Z,100103.58
2018-03-30T20:35:37.996Z,100108.13
2018-03-30T20:38:03.584Z,100110.12
2018-03-30T20:40:29.208Z,100101.11
2018-03-30T20:42:54.792Z,100106.98
2018-03-30T20:45:20.396Z,100100.91
2018-03-30T20:47:46.021Z,100099.36
2018-03-30T20:50:11.617Z,100098.58
2018-03-30T20:52:37.634Z,100095.97
2018-03-30T20:55:03.245Z,100088.09
2018-03-30T20:57:28.840Z,100090.94
2018-03-30T20:59:54.441Z,100085.30
2018-03-30T21:02:20.058Z,100083.08
2018-03-30T21:04:45.648Z,100087.64
2018-03-30T21:07:11.244Z,100088.11
2018-03-30T21:09:37.392Z,100073.72
2018-03-30T21:12:03.031Z,100075.19
2018-03-30T21:14:28.618Z,100073.47
2018-03-30T21:16:54.233Z,100076.52
2018-03-30T21:19:19.837Z,100072.94
2018-03-30T21:21:45.446Z,100069.06
2018-03-30T21:24:11.057Z,100073.59
2018-03-30T21:26:36.957Z,100078.75
2018-03-30T21:29:02.589Z,100075.48
2018-03-30T21:31:28.209Z,100068.61
2018-03-30T21:33:53.818Z,100070.24
2018-03-30T21:36:19.431Z,100065.61
2018-03-30T21:38:45.032Z,100058.45
2018-03-30T21:41:10.638Z,100062.48
2018-03-30T21:43:36.260Z,100062.34
2018-03-30T21:46:01.855Z,100061.34
2018-03-30T21:48:27.456Z,100063.68
2018-03-30T21:50:53.072Z,100064.90
2018-03-30T21:53:18.656Z,100060.34
2018-03-30T21:55:44.414Z,100060.89
2018-03-30T21:58:10.040Z,100055.23
2018-03-30T22:00:35.701Z,100056.11
2018-03-30T22:03:01.302Z,100060.73
2018-03-30T22:05:26.904Z,100054.70
2018-03-30T22:07:52.522Z,100053.48
2018-03-30T22:10:18.140Z,100045.67
2018-03-30T22:12:43.736Z,100053.08
2018-03-30T22:15:09.332Z,100043.50
2018-03-30T22:17:34.941Z,100040.45
2018-03-30T22:20:00.780Z,100039.28
2018-03-30T22:22:26.374Z,100036.22
2018-03-30T22:24:51.996Z,100034.52
2018-03-30T22:27:17.604Z,100031.00
2018-03-30T22:29:43.196Z,100024.09
2018-03-30T22:32:08.830Z,100027.53
2018-03-30T22:34:34.444Z,100028.70
2018-03-30T22:37:00.486Z,100021.05
2018-03-30T22:39:26.102Z,100017.33
2018-03-30T22:41:51.704Z,100004.09
2018-03-30T22:44:17.305Z,100014.27
2018-03-30T22:46:42.944Z,100005.67
2018-03-30T22:49:08.545Z,100015.24
2018-03-30T22:51:34.149Z,100013.99
2018-03-30T22:53:59.763Z,100007.48
2018-03-30T22:56:25.432Z,100012.41
2018-03-30T22:58:51.127Z,100009.11
2018-03-30T23:01:16.729Z,100010.84
2018-03-30T23:03:42.321Z,100013.20
2018-03-30T23:06:07.925Z,99999.28
2018-03-30T23:08:33.525Z,100000.66
2018-03-30T23:10:59.121Z,99997.69
2018-03-30T23:13:24.883Z,99997.83
2018-03-30T23:15:50.501Z,99998.96
2018-03-30T23:18:16.112Z,99998.55
2018-03-30T23:20:41.728Z,99986.80
2018-03-30T23:23:07.312Z,99967.84
2018-03-30T23:25:32.904Z,99970.27
2018-03-30T23:27:58.630Z,99968.41
2018-03-30T23:30:24.460Z,99977.69
2018-03-30T23:32:50.056Z,99972.13
2018-03-30T23:35:15.659Z,99971.34
2018-03-30T23:37:41.260Z,99956.70
2018-03-30T23:40:06.896Z,99970.08
2018-03-30T23:42:32.491Z,99965.34
2018-03-30T23:44:58.088Z,99969.02
2018-03-30T23:47:24.024Z,99972.45
2018-03-30T23:49:49.657Z,99965.95
2018-03-30T23:52:15.258Z,99965.53
2018-03-30T23:54:40.872Z,99966.00
2018-03-30T23:57:06.469Z,99961.22
2018-03-30T23:59:32.072Z,99959.27
